Luther, Oklahoma
Current Conditions -  °F | °C
As of 10:53 PM on Sunday 19 Oct 2014 (Local Time) from KGOK Reporting Station
Clear Clear  
Wind Chill: 60°   Ceiling: Unl
Heat Index: 60°   Visibility: 10mi
Dew Point: 54°   Wind: 7mph
Humidity: 80%   Direction: 170°S
Pressure: 30.04"   Gusts: NA
Location:  35.66°N, 97.2°W
Report Text: KGOK 200353Z AUTO 17006KT 10SM CLR 16/12 A3004 RMK AO2 SLP170 T01560122
Loading
Personal Weather Stations






























Interactive Weather Map
Tropical Storm Tracking
New forecast layout! Learn more

10-Day Weather Forecast

Advertisements
Track Severe Weather on mobile